Terminal Aerodrome Forecast
Issued by NWS Lake Charles, LA

Home | Current Version | Previous Version | Text Only | Print | Product List | Glossary On
Versions: 1 2 3 4 5 6 7 8 9 10 11 12 13 14 15 16 17 18 19 20
000
FTUS44 KLCH 300500
TAFBPT
TAF
KBPT 300522Z 3006/0106 VRB04KT P6SM FEW030
      TEMPO 3010/3014 5SM BR FEW007
     FM301400 09005KT P6SM SCT025=

USA.gov is the U.S. government's official web portal to all federal, state and local government web resources and services.